sensor_id;sensor_type;location;lat;lon;timestamp;temperature;humidity
52709;DHT22;38606;52.986;6.980;2023-06-04T00:00:12;12.30;99.90
52709;DHT22;38606;52.986;6.980;2023-06-04T00:02:38;12.10;99.90
52709;DHT22;38606;52.986;6.980;2023-06-04T00:05:04;12.50;99.90
52709;DHT22;38606;52.986;6.980;2023-06-04T00:07:30;12.30;99.90
52709;DHT22;38606;52.986;6.980;2023-06-04T00:09:56;12.40;99.90
52709;DHT22;38606;52.986;6.980;2023-06-04T00:12:21;12.40;99.90
52709;DHT22;38606;52.986;6.980;2023-06-04T00:14:47;12.20;99.90
52709;DHT22;38606;52.986;6.980;2023-06-04T00:17:13;12.20;99.90
52709;DHT22;38606;52.986;6.980;2023-06-04T00:19:39;12.20;99.90
52709;DHT22;38606;52.986;6.980;2023-06-04T00:22:06;12.00;99.90
52709;DHT22;38606;52.986;6.980;2023-06-04T00:24:32;11.80;99.90
52709;DHT22;38606;52.986;6.980;2023-06-04T00:26:58;12.00;99.90
52709;DHT22;38606;52.986;6.980;2023-06-04T00:29:24;12.00;99.90
52709;DHT22;38606;52.986;6.980;2023-06-04T00:31:49;12.00;99.90
52709;DHT22;38606;52.986;6.980;2023-06-04T00:34:17;12.00;99.90
52709;DHT22;38606;52.986;6.980;2023-06-04T00:36:43;11.90;99.90
52709;DHT22;38606;52.986;6.980;2023-06-04T00:39:09;12.00;99.90
52709;DHT22;38606;52.986;6.980;2023-06-04T00:41:34;11.70;99.90
52709;DHT22;38606;52.986;6.980;2023-06-04T00:44:00;11.90;99.90
52709;DHT22;38606;52.986;6.980;2023-06-04T00:46:28;11.80;99.90
52709;DHT22;38606;52.986;6.980;2023-06-04T00:48:55;11.80;99.90
52709;DHT22;38606;52.986;6.980;2023-06-04T00:51:21;11.80;99.90
52709;DHT22;38606;52.986;6.980;2023-06-04T00:53:50;11.70;99.90
52709;DHT22;38606;52.986;6.980;2023-06-04T00:56:16;11.90;99.90
52709;DHT22;38606;52.986;6.980;2023-06-04T00:58:43;11.80;99.90
52709;DHT22;38606;52.986;6.980;2023-06-04T01:01:49;11.80;99.90
52709;DHT22;38606;52.986;6.980;2023-06-04T01:04:32;11.70;99.90
52709;DHT22;38606;52.986;6.980;2023-06-04T01:07:02;11.60;99.90
52709;DHT22;38606;52.986;6.980;2023-06-04T01:09:29;11.60;99.90
52709;DHT22;38606;52.986;6.980;2023-06-04T01:11:56;11.70;99.90
52709;DHT22;38606;52.986;6.980;2023-06-04T01:14:27;11.60;99.90
52709;DHT22;38606;52.986;6.980;2023-06-04T01:16:59;11.70;99.90
52709;DHT22;38606;52.986;6.980;2023-06-04T01:25:18;11.50;99.90
52709;DHT22;38606;52.986;6.980;2023-06-04T01:27:53;11.60;99.90
52709;DHT22;38606;52.986;6.980;2023-06-04T01:30:32;11.30;99.90
52709;DHT22;38606;52.986;6.980;2023-06-04T01:32:59;11.20;99.90
52709;DHT22;38606;52.986;6.980;2023-06-04T01:35:26;11.00;99.90
52709;DHT22;38606;52.986;6.980;2023-06-04T01:37:53;11.40;99.90
52709;DHT22;38606;52.986;6.980;2023-06-04T01:40:20;11.40;99.90
52709;DHT22;38606;52.986;6.980;2023-06-04T01:42:46;11.30;99.90
52709;DHT22;38606;52.986;6.980;2023-06-04T01:45:12;11.30;99.90
52709;DHT22;38606;52.986;6.980;2023-06-04T01:47:37;11.50;99.90
52709;DHT22;38606;52.986;6.980;2023-06-04T01:50:05;11.30;99.90
52709;DHT22;38606;52.986;6.980;2023-06-04T01:52:38;11.10;99.90
52709;DHT22;38606;52.986;6.980;2023-06-04T01:55:05;11.00;99.90
52709;DHT22;38606;52.986;6.980;2023-06-04T01:57:33;11.20;99.90
52709;DHT22;38606;52.986;6.980;2023-06-04T01:59:59;11.30;99.90
52709;DHT22;38606;52.986;6.980;2023-06-04T02:02:26;11.20;99.90
52709;DHT22;38606;52.986;6.980;2023-06-04T02:04:52;11.20;99.90
52709;DHT22;38606;52.986;6.980;2023-06-04T02:07:19;11.20;99.90
52709;DHT22;38606;52.986;6.980;2023-06-04T02:09:48;11.10;99.90
52709;DHT22;38606;52.986;6.980;2023-06-04T02:12:15;11.10;99.90
52709;DHT22;38606;52.986;6.980;2023-06-04T02:14:41;10.80;99.90
52709;DHT22;38606;52.986;6.980;2023-06-04T02:17:07;11.10;99.90
52709;DHT22;38606;52.986;6.980;2023-06-04T02:19:42;10.90;99.90
52709;DHT22;38606;52.986;6.980;2023-06-04T02:22:16;11.00;99.90
52709;DHT22;38606;52.986;6.980;2023-06-04T02:24:42;10.90;99.90
52709;DHT22;38606;52.986;6.980;2023-06-04T02:27:09;11.10;99.90
52709;DHT22;38606;52.986;6.980;2023-06-04T02:29:35;10.90;99.90
52709;DHT22;38606;52.986;6.980;2023-06-04T02:32:01;10.90;99.90
52709;DHT22;38606;52.986;6.980;2023-06-04T02:34:27;11.00;99.90
52709;DHT22;38606;52.986;6.980;2023-06-04T02:36:53;11.10;99.90
52709;DHT22;38606;52.986;6.980;2023-06-04T02:39:19;10.80;99.90
52709;DHT22;38606;52.986;6.980;2023-06-04T02:41:45;10.90;99.90
52709;DHT22;38606;52.986;6.980;2023-06-04T02:44:12;10.90;99.90
52709;DHT22;38606;52.986;6.980;2023-06-04T02:46:38;10.80;99.90
52709;DHT22;38606;52.986;6.980;2023-06-04T02:49:04;10.90;99.90
52709;DHT22;38606;52.986;6.980;2023-06-04T02:51:30;10.80;99.90
52709;DHT22;38606;52.986;6.980;2023-06-04T02:53:55;10.70;99.90
52709;DHT22;38606;52.986;6.980;2023-06-04T02:56:21;10.70;99.90
52709;DHT22;38606;52.986;6.980;2023-06-04T02:58:51;10.90;99.90
52709;DHT22;38606;52.986;6.980;2023-06-04T03:01:21;10.80;99.90
52709;DHT22;38606;52.986;6.980;2023-06-04T03:03:47;10.70;99.90
52709;DHT22;38606;52.986;6.980;2023-06-04T03:06:14;10.80;99.90
52709;DHT22;38606;52.986;6.980;2023-06-04T03:08:41;10.90;99.90
52709;DHT22;38606;52.986;6.980;2023-06-04T03:11:07;10.70;99.90
52709;DHT22;38606;52.986;6.980;2023-06-04T03:13:33;10.70;99.90
52709;DHT22;38606;52.986;6.980;2023-06-04T03:15:58;10.70;99.90
52709;DHT22;38606;52.986;6.980;2023-06-04T03:18:28;10.60;99.90
52709;DHT22;38606;52.986;6.980;2023-06-04T03:20:54;10.70;99.90
52709;DHT22;38606;52.986;6.980;2023-06-04T03:23:20;10.90;99.90
52709;DHT22;38606;52.986;6.980;2023-06-04T03:25:47;10.60;99.90
52709;DHT22;38606;52.986;6.980;2023-06-04T03:28:12;10.80;99.90
52709;DHT22;38606;52.986;6.980;2023-06-04T03:30:39;10.70;99.90
52709;DHT22;38606;52.986;6.980;2023-06-04T03:33:05;11.00;99.90
52709;DHT22;38606;52.986;6.980;2023-06-04T03:35:31;10.80;99.90
52709;DHT22;38606;52.986;6.980;2023-06-04T03:37:57;10.80;99.90
52709;DHT22;38606;52.986;6.980;2023-06-04T03:40:22;10.60;99.90
52709;DHT22;38606;52.986;6.980;2023-06-04T03:42:48;10.70;99.90
52709;DHT22;38606;52.986;6.980;2023-06-04T03:45:14;10.70;99.90
52709;DHT22;38606;52.986;6.980;2023-06-04T03:47:40;10.50;99.90
52709;DHT22;38606;52.986;6.980;2023-06-04T03:50:06;10.60;99.90
52709;DHT22;38606;52.986;6.980;2023-06-04T03:52:32;10.50;99.90
52709;DHT22;38606;52.986;6.980;2023-06-04T03:54:58;10.50;99.90
52709;DHT22;38606;52.986;6.980;2023-06-04T03:57:24;10.70;99.90
52709;DHT22;38606;52.986;6.980;2023-06-04T03:59:50;10.90;99.90
52709;DHT22;38606;52.986;6.980;2023-06-04T04:02:15;10.70;99.90
52709;DHT22;38606;52.986;6.980;2023-06-04T04:04:44;10.80;99.90
52709;DHT22;38606;52.986;6.980;2023-06-04T04:07:10;10.80;99.90
52709;DHT22;38606;52.986;6.980;2023-06-04T04:09:36;10.80;99.90
52709;DHT22;38606;52.986;6.980;2023-06-04T04:12:03;10.90;99.90
52709;DHT22;38606;52.986;6.980;2023-06-04T04:14:29;10.90;99.90
52709;DHT22;38606;52.986;6.980;2023-06-04T04:16:54;11.00;99.90
52709;DHT22;38606;52.986;6.980;2023-06-04T04:19:20;11.00;99.90
52709;DHT22;38606;52.986;6.980;2023-06-04T04:21:46;11.00;99.90
52709;DHT22;38606;52.986;6.980;2023-06-04T04:24:26;11.20;99.90
52709;DHT22;38606;52.986;6.980;2023-06-04T04:26:53;11.20;99.90
52709;DHT22;38606;52.986;6.980;2023-06-04T04:29:22;11.10;99.90
52709;DHT22;38606;52.986;6.980;2023-06-04T04:31:50;11.30;99.90
52709;DHT22;38606;52.986;6.980;2023-06-04T04:34:17;11.40;99.90
52709;DHT22;38606;52.986;6.980;2023-06-04T04:36:43;11.30;99.90
52709;DHT22;38606;52.986;6.980;2023-06-04T04:39:10;11.60;99.90
52709;DHT22;38606;52.986;6.980;2023-06-04T04:41:37;11.50;99.90
52709;DHT22;38606;52.986;6.980;2023-06-04T04:44:04;11.60;99.90
52709;DHT22;38606;52.986;6.980;2023-06-04T04:46:30;11.70;99.90
52709;DHT22;38606;52.986;6.980;2023-06-04T04:48:56;11.70;99.90
52709;DHT22;38606;52.986;6.980;2023-06-04T04:51:22;12.00;99.90
52709;DHT22;38606;52.986;6.980;2023-06-04T04:53:48;12.00;99.90
52709;DHT22;38606;52.986;6.980;2023-06-04T04:56:14;12.00;99.90
52709;DHT22;38606;52.986;6.980;2023-06-04T04:58:40;12.10;99.90
52709;DHT22;38606;52.986;6.980;2023-06-04T05:01:05;12.20;99.90
52709;DHT22;38606;52.986;6.980;2023-06-04T05:03:31;12.30;99.90
52709;DHT22;38606;52.986;6.980;2023-06-04T05:05:57;12.20;99.90
52709;DHT22;38606;52.986;6.980;2023-06-04T05:08:23;12.30;99.90
52709;DHT22;38606;52.986;6.980;2023-06-04T05:10:50;12.70;99.90
52709;DHT22;38606;52.986;6.980;2023-06-04T05:13:16;12.80;99.90
52709;DHT22;38606;52.986;6.980;2023-06-04T05:15:43;12.60;99.90
52709;DHT22;38606;52.986;6.980;2023-06-04T05:18:09;12.90;99.90
52709;DHT22;38606;52.986;6.980;2023-06-04T05:20:34;12.70;99.90
52709;DHT22;38606;52.986;6.980;2023-06-04T05:23:03;12.90;99.90
52709;DHT22;38606;52.986;6.980;2023-06-04T05:25:29;13.00;99.90
52709;DHT22;38606;52.986;6.980;2023-06-04T05:27:58;13.10;99.90
52709;DHT22;38606;52.986;6.980;2023-06-04T05:30:24;13.20;99.90
52709;DHT22;38606;52.986;6.980;2023-06-04T05:32:53;13.10;99.90
52709;DHT22;38606;52.986;6.980;2023-06-04T05:35:19;13.50;99.90
52709;DHT22;38606;52.986;6.980;2023-06-04T05:37:45;13.70;99.90
52709;DHT22;38606;52.986;6.980;2023-06-04T05:40:19;13.70;99.90
52709;DHT22;38606;52.986;6.980;2023-06-04T05:42:47;13.80;99.90
52709;DHT22;38606;52.986;6.980;2023-06-04T05:45:13;16.00;99.90
52709;DHT22;38606;52.986;6.980;2023-06-04T05:47:39;13.90;99.90
52709;DHT22;38606;52.986;6.980;2023-06-04T05:50:06;14.00;99.90
52709;DHT22;38606;52.986;6.980;2023-06-04T05:52:32;14.10;99.90
52709;DHT22;38606;52.986;6.980;2023-06-04T05:54:58;14.50;99.90
52709;DHT22;38606;52.986;6.980;2023-06-04T05:57:24;14.40;99.90
52709;DHT22;38606;52.986;6.980;2023-06-04T05:59:50;14.70;99.90
52709;DHT22;38606;52.986;6.980;2023-06-04T06:02:16;14.30;99.90
52709;DHT22;38606;52.986;6.980;2023-06-04T06:04:42;14.50;99.90
52709;DHT22;38606;52.986;6.980;2023-06-04T06:07:08;14.60;99.90
52709;DHT22;38606;52.986;6.980;2023-06-04T06:09:34;15.00;99.90
52709;DHT22;38606;52.986;6.980;2023-06-04T06:12:01;14.80;99.90
52709;DHT22;38606;52.986;6.980;2023-06-04T06:14:27;14.90;99.90
52709;DHT22;38606;52.986;6.980;2023-06-04T06:16:52;14.90;99.90
52709;DHT22;38606;52.986;6.980;2023-06-04T06:19:18;14.90;99.90
52709;DHT22;38606;52.986;6.980;2023-06-04T06:21:45;15.10;99.90
52709;DHT22;38606;52.986;6.980;2023-06-04T06:24:11;15.20;99.90
52709;DHT22;38606;52.986;6.980;2023-06-04T06:26:36;15.20;99.90
52709;DHT22;38606;52.986;6.980;2023-06-04T06:29:02;15.30;99.90
52709;DHT22;38606;52.986;6.980;2023-06-04T06:31:28;15.40;99.90
52709;DHT22;38606;52.986;6.980;2023-06-04T06:33:54;15.30;99.90
52709;DHT22;38606;52.986;6.980;2023-06-04T06:36:20;15.40;99.90
52709;DHT22;38606;52.986;6.980;2023-06-04T06:38:45;15.70;99.90
52709;DHT22;38606;52.986;6.980;2023-06-04T06:41:12;15.60;99.90
52709;DHT22;38606;52.986;6.980;2023-06-04T06:43:38;15.80;99.90
52709;DHT22;38606;52.986;6.980;2023-06-04T06:46:03;15.80;99.90
52709;DHT22;38606;52.986;6.980;2023-06-04T06:48:29;15.80;99.90
52709;DHT22;38606;52.986;6.980;2023-06-04T06:50:55;15.70;99.90
52709;DHT22;38606;52.986;6.980;2023-06-04T06:53:21;16.00;99.90
52709;DHT22;38606;52.986;6.980;2023-06-04T06:55:47;15.80;99.90
52709;DHT22;38606;52.986;6.980;2023-06-04T06:58:13;16.10;99.90
52709;DHT22;38606;52.986;6.980;2023-06-04T07:00:38;16.10;99.90
52709;DHT22;38606;52.986;6.980;2023-06-04T07:03:04;16.10;99.90
52709;DHT22;38606;52.986;6.980;2023-06-04T07:05:30;16.30;99.90
52709;DHT22;38606;52.986;6.980;2023-06-04T07:07:56;16.50;99.90
52709;DHT22;38606;52.986;6.980;2023-06-04T07:10:23;16.50;99.90
52709;DHT22;38606;52.986;6.980;2023-06-04T07:12:50;16.90;99.90
52709;DHT22;38606;52.986;6.980;2023-06-04T07:15:15;16.90;99.90
52709;DHT22;38606;52.986;6.980;2023-06-04T07:17:41;16.90;99.90
52709;DHT22;38606;52.986;6.980;2023-06-04T07:20:07;16.90;99.90
52709;DHT22;38606;52.986;6.980;2023-06-04T07:22:35;17.20;99.90
52709;DHT22;38606;52.986;6.980;2023-06-04T07:25:01;17.30;99.90
52709;DHT22;38606;52.986;6.980;2023-06-04T07:27:27;17.30;99.90
52709;DHT22;38606;52.986;6.980;2023-06-04T07:29:53;17.20;99.90
52709;DHT22;38606;52.986;6.980;2023-06-04T07:32:19;17.40;99.90
52709;DHT22;38606;52.986;6.980;2023-06-04T07:34:45;17.60;99.90
52709;DHT22;38606;52.986;6.980;2023-06-04T07:37:10;17.60;99.90
52709;DHT22;38606;52.986;6.980;2023-06-04T07:39:38;17.70;99.90
52709;DHT22;38606;52.986;6.980;2023-06-04T07:42:05;17.80;99.90
52709;DHT22;38606;52.986;6.980;2023-06-04T07:44:33;17.90;99.90
52709;DHT22;38606;52.986;6.980;2023-06-04T07:46:58;18.10;99.90
52709;DHT22;38606;52.986;6.980;2023-06-04T07:49:24;18.10;99.90
52709;DHT22;38606;52.986;6.980;2023-06-04T07:51:50;18.20;99.90
52709;DHT22;38606;52.986;6.980;2023-06-04T07:54:16;18.20;99.90
52709;DHT22;38606;52.986;6.980;2023-06-04T07:56:43;18.30;99.90
52709;DHT22;38606;52.986;6.980;2023-06-04T07:59:09;18.40;99.90
52709;DHT22;38606;52.986;6.980;2023-06-04T08:01:35;18.60;99.90
52709;DHT22;38606;52.986;6.980;2023-06-04T08:04:01;18.60;99.90
52709;DHT22;38606;52.986;6.980;2023-06-04T08:06:26;18.80;99.90
52709;DHT22;38606;52.986;6.980;2023-06-04T08:08:52;18.60;99.90
52709;DHT22;38606;52.986;6.980;2023-06-04T08:11:18;18.80;99.90
52709;DHT22;38606;52.986;6.980;2023-06-04T08:13:44;19.10;99.90
52709;DHT22;38606;52.986;6.980;2023-06-04T08:16:10;19.20;99.90
52709;DHT22;38606;52.986;6.980;2023-06-04T08:18:42;19.00;99.90
52709;DHT22;38606;52.986;6.980;2023-06-04T08:21:10;19.30;99.90
52709;DHT22;38606;52.986;6.980;2023-06-04T08:23:42;19.20;99.90
52709;DHT22;38606;52.986;6.980;2023-06-04T08:26:08;19.10;99.90
52709;DHT22;38606;52.986;6.980;2023-06-04T08:28:33;19.50;99.90
52709;DHT22;38606;52.986;6.980;2023-06-04T08:30:59;19.60;99.90
52709;DHT22;38606;52.986;6.980;2023-06-04T08:33:28;19.60;99.90
52709;DHT22;38606;52.986;6.980;2023-06-04T08:35:54;19.70;99.90
52709;DHT22;38606;52.986;6.980;2023-06-04T08:38:19;19.90;99.90
52709;DHT22;38606;52.986;6.980;2023-06-04T08:40:49;19.80;99.90
52709;DHT22;38606;52.986;6.980;2023-06-04T08:43:17;19.10;99.90
52709;DHT22;38606;52.986;6.980;2023-06-04T08:45:48;20.00;99.90
52709;DHT22;38606;52.986;6.980;2023-06-04T08:48:15;20.20;99.90
52709;DHT22;38606;52.986;6.980;2023-06-04T08:50:45;18.80;99.90
52709;DHT22;38606;52.986;6.980;2023-06-04T08:53:15;20.30;99.90
52709;DHT22;38606;52.986;6.980;2023-06-04T08:55:41;20.10;99.90
52709;DHT22;38606;52.986;6.980;2023-06-04T08:58:10;20.10;99.90
52709;DHT22;38606;52.986;6.980;2023-06-04T09:00:37;20.30;99.90
52709;DHT22;38606;52.986;6.980;2023-06-04T09:03:02;20.30;99.90
52709;DHT22;38606;52.986;6.980;2023-06-04T09:05:31;20.40;99.90
52709;DHT22;38606;52.986;6.980;2023-06-04T09:08:00;20.60;99.90
52709;DHT22;38606;52.986;6.980;2023-06-04T09:10:29;20.50;99.90
52709;DHT22;38606;52.986;6.980;2023-06-04T09:12:57;20.70;99.90
52709;DHT22;38606;52.986;6.980;2023-06-04T09:15:26;20.70;99.90
52709;DHT22;38606;52.986;6.980;2023-06-04T09:17:52;20.70;99.90
52709;DHT22;38606;52.986;6.980;2023-06-04T09:20:21;20.50;99.90
52709;DHT22;38606;52.986;6.980;2023-06-04T09:22:48;20.50;99.90
52709;DHT22;38606;52.986;6.980;2023-06-04T09:25:24;21.00;98.30
52709;DHT22;38606;52.986;6.980;2023-06-04T09:27:51;20.80;95.80
52709;DHT22;38606;52.986;6.980;2023-06-04T09:30:17;20.40;96.80
52709;DHT22;38606;52.986;6.980;2023-06-04T09:32:43;20.50;97.40
52709;DHT22;38606;52.986;6.980;2023-06-04T09:35:14;20.70;97.20
52709;DHT22;38606;52.986;6.980;2023-06-04T09:37:42;20.80;95.70
52709;DHT22;38606;52.986;6.980;2023-06-04T09:40:09;20.80;96.00
52709;DHT22;38606;52.986;6.980;2023-06-04T09:42:49;20.80;95.40
52709;DHT22;38606;52.986;6.980;2023-06-04T09:45:32;20.90;94.20
52709;DHT22;38606;52.986;6.980;2023-06-04T09:48:01;21.10;92.30
52709;DHT22;38606;52.986;6.980;2023-06-04T09:50:30;21.10;92.90
52709;DHT22;38606;52.986;6.980;2023-06-04T09:52:56;21.00;93.30
52709;DHT22;38606;52.986;6.980;2023-06-04T09:55:22;21.40;94.60
52709;DHT22;38606;52.986;6.980;2023-06-04T09:57:52;21.30;93.50
52709;DHT22;38606;52.986;6.980;2023-06-04T10:00:19;21.20;92.60
52709;DHT22;38606;52.986;6.980;2023-06-04T10:02:47;21.30;93.00
52709;DHT22;38606;52.986;6.980;2023-06-04T10:05:14;22.20;93.60
52709;DHT22;38606;52.986;6.980;2023-06-04T10:07:44;21.70;93.20
52709;DHT22;38606;52.986;6.980;2023-06-04T10:10:23;21.40;92.50
52709;DHT22;38606;52.986;6.980;2023-06-04T10:13:05;21.80;93.40
52709;DHT22;38606;52.986;6.980;2023-06-04T10:15:32;21.70;91.60
52709;DHT22;38606;52.986;6.980;2023-06-04T10:18:02;21.60;92.20
52709;DHT22;38606;52.986;6.980;2023-06-04T10:20:28;23.10;92.50
52709;DHT22;38606;52.986;6.980;2023-06-04T10:22:54;21.70;92.60
52709;DHT22;38606;52.986;6.980;2023-06-04T10:25:21;21.50;92.80
52709;DHT22;38606;52.986;6.980;2023-06-04T10:27:46;21.70;92.80
52709;DHT22;38606;52.986;6.980;2023-06-04T10:30:13;21.80;91.70
52709;DHT22;38606;52.986;6.980;2023-06-04T10:32:39;21.70;92.40
52709;DHT22;38606;52.986;6.980;2023-06-04T10:35:06;21.80;91.20
52709;DHT22;38606;52.986;6.980;2023-06-04T10:37:34;21.80;90.10
52709;DHT22;38606;52.986;6.980;2023-06-04T10:40:00;21.70;90.70
52709;DHT22;38606;52.986;6.980;2023-06-04T10:42:26;21.90;90.10
52709;DHT22;38606;52.986;6.980;2023-06-04T10:45:02;21.80;93.00
52709;DHT22;38606;52.986;6.980;2023-06-04T10:47:28;21.80;94.10
52709;DHT22;38606;52.986;6.980;2023-06-04T10:50:12;21.90;91.40
52709;DHT22;38606;52.986;6.980;2023-06-04T10:52:54;21.60;91.20
52709;DHT22;38606;52.986;6.980;2023-06-04T10:55:20;22.10;88.40
52709;DHT22;38606;52.986;6.980;2023-06-04T10:57:59;21.80;90.30
52709;DHT22;38606;52.986;6.980;2023-06-04T11:00:43;21.90;90.40
52709;DHT22;38606;52.986;6.980;2023-06-04T11:03:11;21.90;85.30
52709;DHT22;38606;52.986;6.980;2023-06-04T11:05:40;22.10;87.40
52709;DHT22;38606;52.986;6.980;2023-06-04T11:08:06;22.10;87.10
52709;DHT22;38606;52.986;6.980;2023-06-04T11:10:51;21.80;87.40
52709;DHT22;38606;52.986;6.980;2023-06-04T11:13:25;22.00;83.20
52709;DHT22;38606;52.986;6.980;2023-06-04T11:15:51;22.00;83.80
52709;DHT22;38606;52.986;6.980;2023-06-04T11:18:19;22.10;83.90
52709;DHT22;38606;52.986;6.980;2023-06-04T11:20:48;22.20;83.70
52709;DHT22;38606;52.986;6.980;2023-06-04T11:23:14;22.00;82.70
52709;DHT22;38606;52.986;6.980;2023-06-04T11:25:41;21.90;81.50
52709;DHT22;38606;52.986;6.980;2023-06-04T11:28:17;21.90;81.50
52709;DHT22;38606;52.986;6.980;2023-06-04T11:30:44;22.20;80.20
52709;DHT22;38606;52.986;6.980;2023-06-04T11:33:10;22.20;80.40
52709;DHT22;38606;52.986;6.980;2023-06-04T11:35:42;22.20;79.50
52709;DHT22;38606;52.986;6.980;2023-06-04T11:38:08;22.10;81.50
52709;DHT22;38606;52.986;6.980;2023-06-04T11:40:35;22.10;82.30
52709;DHT22;38606;52.986;6.980;2023-06-04T11:43:02;22.40;80.40
52709;DHT22;38606;52.986;6.980;2023-06-04T11:45:28;22.20;77.90
52709;DHT22;38606;52.986;6.980;2023-06-04T11:47:56;22.50;77.50
52709;DHT22;38606;52.986;6.980;2023-06-04T11:50:26;22.50;77.00
52709;DHT22;38606;52.986;6.980;2023-06-04T11:52:52;22.50;78.30
52709;DHT22;38606;52.986;6.980;2023-06-04T11:55:19;22.40;77.90
52709;DHT22;38606;52.986;6.980;2023-06-04T11:57:48;22.40;76.50
52709;DHT22;38606;52.986;6.980;2023-06-04T12:00:15;22.40;77.60
52709;DHT22;38606;52.986;6.980;2023-06-04T12:02:55;22.70;79.20
52709;DHT22;38606;52.986;6.980;2023-06-04T12:05:23;22.60;76.70
52709;DHT22;38606;52.986;6.980;2023-06-04T12:07:51;22.70;78.30
52709;DHT22;38606;52.986;6.980;2023-06-04T12:10:20;22.80;77.00
52709;DHT22;38606;52.986;6.980;2023-06-04T12:12:46;22.70;76.30
52709;DHT22;38606;52.986;6.980;2023-06-04T12:15:20;22.70;76.80
52709;DHT22;38606;52.986;6.980;2023-06-04T12:17:52;22.80;77.20
52709;DHT22;38606;52.986;6.980;2023-06-04T12:20:19;22.70;77.30
52709;DHT22;38606;52.986;6.980;2023-06-04T12:22:56;22.50;76.60
52709;DHT22;38606;52.986;6.980;2023-06-04T12:25:26;22.90;78.90
52709;DHT22;38606;52.986;6.980;2023-06-04T12:27:52;22.90;76.40
52709;DHT22;38606;52.986;6.980;2023-06-04T12:30:18;22.70;76.60
52709;DHT22;38606;52.986;6.980;2023-06-04T12:32:44;22.70;78.90
52709;DHT22;38606;52.986;6.980;2023-06-04T12:35:11;22.80;77.70
52709;DHT22;38606;52.986;6.980;2023-06-04T12:37:37;22.50;76.00
52709;DHT22;38606;52.986;6.980;2023-06-04T12:40:03;22.60;76.70
52709;DHT22;38606;52.986;6.980;2023-06-04T12:42:32;22.80;76.80
52709;DHT22;38606;52.986;6.980;2023-06-04T12:44:57;22.50;77.60
52709;DHT22;38606;52.986;6.980;2023-06-04T12:47:23;22.60;76.00
52709;DHT22;38606;52.986;6.980;2023-06-04T12:49:49;22.30;76.70
52709;DHT22;38606;52.986;6.980;2023-06-04T12:52:17;22.50;78.80
52709;DHT22;38606;52.986;6.980;2023-06-04T12:54:43;22.50;78.80
52709;DHT22;38606;52.986;6.980;2023-06-04T12:57:09;22.50;77.50
52709;DHT22;38606;52.986;6.980;2023-06-04T12:59:35;22.40;77.90
52709;DHT22;38606;52.986;6.980;2023-06-04T13:02:01;22.60;79.00
52709;DHT22;38606;52.986;6.980;2023-06-04T13:04:27;22.40;78.10
52709;DHT22;38606;52.986;6.980;2023-06-04T13:06:53;22.70;78.50
52709;DHT22;38606;52.986;6.980;2023-06-04T13:09:24;22.40;78.10
52709;DHT22;38606;52.986;6.980;2023-06-04T13:11:51;22.10;78.30
52709;DHT22;38606;52.986;6.980;2023-06-04T13:14:17;22.50;79.30
52709;DHT22;38606;52.986;6.980;2023-06-04T13:16:43;22.50;80.20
52709;DHT22;38606;52.986;6.980;2023-06-04T13:19:11;22.60;80.00
52709;DHT22;38606;52.986;6.980;2023-06-04T13:21:36;22.70;81.30
52709;DHT22;38606;52.986;6.980;2023-06-04T13:24:05;22.50;81.10
52709;DHT22;38606;52.986;6.980;2023-06-04T13:26:33;22.50;80.30
52709;DHT22;38606;52.986;6.980;2023-06-04T13:28:58;22.30;81.20
52709;DHT22;38606;52.986;6.980;2023-06-04T13:31:24;22.50;80.00
52709;DHT22;38606;52.986;6.980;2023-06-04T13:33:50;22.60;80.00
52709;DHT22;38606;52.986;6.980;2023-06-04T13:36:16;22.60;79.80
52709;DHT22;38606;52.986;6.980;2023-06-04T13:38:42;22.20;80.90
52709;DHT22;38606;52.986;6.980;2023-06-04T13:41:08;22.20;80.40
52709;DHT22;38606;52.986;6.980;2023-06-04T13:43:37;22.30;79.70
52709;DHT22;38606;52.986;6.980;2023-06-04T13:46:04;22.50;81.10
52709;DHT22;38606;52.986;6.980;2023-06-04T13:48:30;22.50;81.90
52709;DHT22;38606;52.986;6.980;2023-06-04T13:50:55;22.20;82.70
52709;DHT22;38606;52.986;6.980;2023-06-04T13:53:21;22.40;81.90
52709;DHT22;38606;52.986;6.980;2023-06-04T13:55:47;22.40;82.40
52709;DHT22;38606;52.986;6.980;2023-06-04T13:58:12;22.10;83.10
52709;DHT22;38606;52.986;6.980;2023-06-04T14:00:40;22.30;83.00
52709;DHT22;38606;52.986;6.980;2023-06-04T14:03:05;22.40;83.20
52709;DHT22;38606;52.986;6.980;2023-06-04T14:05:31;22.40;83.60
52709;DHT22;38606;52.986;6.980;2023-06-04T14:07:57;22.20;83.80
52709;DHT22;38606;52.986;6.980;2023-06-04T14:10:23;22.30;84.20
52709;DHT22;38606;52.986;6.980;2023-06-04T14:12:49;22.30;84.70
52709;DHT22;38606;52.986;6.980;2023-06-04T14:15:15;22.10;84.30
52709;DHT22;38606;52.986;6.980;2023-06-04T14:17:41;22.40;84.10
52709;DHT22;38606;52.986;6.980;2023-06-04T14:20:07;22.20;83.50
52709;DHT22;38606;52.986;6.980;2023-06-04T14:22:37;22.20;84.30
52709;DHT22;38606;52.986;6.980;2023-06-04T14:25:07;22.00;84.80
52709;DHT22;38606;52.986;6.980;2023-06-04T14:27:34;21.90;85.10
52709;DHT22;38606;52.986;6.980;2023-06-04T14:30:01;22.00;86.60
52709;DHT22;38606;52.986;6.980;2023-06-04T14:32:27;21.90;87.00
52709;DHT22;38606;52.986;6.980;2023-06-04T14:34:53;21.80;87.80
52709;DHT22;38606;52.986;6.980;2023-06-04T14:37:20;21.90;88.00
52709;DHT22;38606;52.986;6.980;2023-06-04T14:39:47;21.70;88.40
52709;DHT22;38606;52.986;6.980;2023-06-04T14:42:13;22.00;89.50
52709;DHT22;38606;52.986;6.980;2023-06-04T14:44:39;21.90;89.10
52709;DHT22;38606;52.986;6.980;2023-06-04T14:47:05;21.60;88.90
52709;DHT22;38606;52.986;6.980;2023-06-04T14:49:31;21.90;89.20
52709;DHT22;38606;52.986;6.980;2023-06-04T14:51:57;21.80;89.80
52709;DHT22;38606;52.986;6.980;2023-06-04T14:54:22;21.80;90.00
52709;DHT22;38606;52.986;6.980;2023-06-04T14:56:48;21.80;90.10
52709;DHT22;38606;52.986;6.980;2023-06-04T14:59:14;21.60;90.50
52709;DHT22;38606;52.986;6.980;2023-06-04T15:01:41;21.50;91.10
52709;DHT22;38606;52.986;6.980;2023-06-04T15:04:07;21.40;90.90
52709;DHT22;38606;52.986;6.980;2023-06-04T15:06:33;21.50;90.80
52709;DHT22;38606;52.986;6.980;2023-06-04T15:08:59;21.40;91.20
52709;DHT22;38606;52.986;6.980;2023-06-04T15:11:25;21.60;91.20
52709;DHT22;38606;52.986;6.980;2023-06-04T15:13:55;21.40;91.60
52709;DHT22;38606;52.986;6.980;2023-06-04T15:16:21;21.20;91.90
52709;DHT22;38606;52.986;6.980;2023-06-04T15:18:47;21.30;92.00
52709;DHT22;38606;52.986;6.980;2023-06-04T15:21:13;21.40;92.20
52709;DHT22;38606;52.986;6.980;2023-06-04T15:23:40;21.20;92.00
52709;DHT22;38606;52.986;6.980;2023-06-04T15:26:05;21.10;92.10
52709;DHT22;38606;52.986;6.980;2023-06-04T15:28:31;20.90;92.10
52709;DHT22;38606;52.986;6.980;2023-06-04T15:30:57;21.10;92.50
52709;DHT22;38606;52.986;6.980;2023-06-04T15:33:23;20.90;92.60
52709;DHT22;38606;52.986;6.980;2023-06-04T15:35:49;20.60;92.70